Terminal Aerodrome Forecast
Issued by NWS

Home | Current Version | Previous Version | Text Only | Print | Product List | Glossary On
Versions: 1 2 3 4 5 6 7 8 9 10 11 12 13
532
FTUS45 KPSR 061128
TAFBLH
TAF
KBLH 061128Z 0612/0712 VRB04KT P6SM SCT150 BKN250
      TEMPO 0612/0615 34005KT
     FM061800 18008KT P6SM SCT150 BKN200
     FM070900 34006KT P6SM SCT150 BKN250=

USA.gov is the U.S. government's official web portal to all federal, state and local government web resources and services.